Time;durP1;ratioP1;P1;durP2;ratioP2;P2;SDS_P1;SDS_P2;PMS_P1;PMS_P2;Temp;Humidity;BMP_temperature;BMP_pressure;BME280_temperature;BME280_humidity;BME280_pressure;Samples;Min_cycle;Max_cycle;Signal;HPM_P1;HPM_P2
2023/03/11 00:00:40;;;;;;;21.08;11.15;;;;;;;4.20;76.46;100601.22;5034287;28;20049;-40
2023/03/11 00:03:07;;;;;;;21.38;11.07;;;;;;;4.04;76.26;100594.88;5033503;28;20061;-40
2023/03/11 00:05:38;;;;;;;19.65;10.80;;;;;;;4.15;76.12;100608.59;5033907;28;20068;-41
2023/03/11 00:08:06;;;;;;;17.17;9.90;;;;;;;4.10;75.91;100603.94;5033805;28;20030;-41
2023/03/11 00:10:35;;;;;;;19.95;10.57;;;;;;;4.05;76.36;100607.47;5034234;28;20017;-40
2023/03/11 00:13:01;;;;;;;19.63;10.45;;;;;;;4.03;76.17;100606.91;5034418;28;20464;-41
2023/03/11 00:15:27;;;;;;;18.88;10.63;;;;;;;4.03;75.64;100606.91;5034415;28;20124;-40
2023/03/11 00:17:53;;;;;;;18.38;10.80;;;;;;;4.03;77.31;100608.84;5034094;28;20503;-40
2023/03/11 00:20:25;;;;;;;17.63;10.57;;;;;;;4.06;76.74;100609.13;5034177;28;20530;-40
2023/03/11 00:22:52;;;;;;;19.25;11.10;;;;;;;4.10;75.74;100616.81;5034156;28;20044;-40
2023/03/11 00:25:18;;;;;;;18.13;10.52;;;;;;;4.09;75.24;100615.97;5033630;28;20574;-40
2023/03/11 00:27:43;;;;;;;17.35;11.02;;;;;;;4.06;76.32;100613.78;5033721;28;20130;-40
2023/03/11 00:30:10;;;;;;;16.77;10.15;;;;;;;4.15;76.53;100623.13;5033067;28;20087;-40
2023/03/11 00:32:36;;;;;;;18.55;10.90;;;;;;;4.11;74.84;100626.66;5027437;28;20102;-41
2023/03/11 00:35:01;;;;;;;19.45;11.10;;;;;;;4.06;74.39;100631.03;5032212;28;20548;-40
2023/03/11 00:37:27;;;;;;;17.40;11.00;;;;;;;4.10;77.38;100623.09;5033372;28;20534;-40
2023/03/11 00:39:52;;;;;;;18.17;11.05;;;;;;;4.08;74.21;100638.94;5033037;28;20052;-40
2023/03/11 00:42:17;;;;;;;18.98;10.95;;;;;;;4.17;75.37;100642.00;5032016;28;20040;-40
2023/03/11 00:44:43;;;;;;;18.05;11.10;;;;;;;4.20;75.25;100639.56;5033401;28;20025;-40
2023/03/11 00:47:10;;;;;;;19.35;11.40;;;;;;;4.22;75.21;100650.22;5033191;28;20029;-40
2023/03/11 00:49:36;;;;;;;17.23;10.63;;;;;;;4.18;74.25;100660.09;5033285;28;20086;-40
2023/03/11 00:52:02;;;;;;;17.42;10.63;;;;;;;4.13;74.85;100652.69;5033216;28;20033;-41
2023/03/11 00:54:27;;;;;;;16.20;10.55;;;;;;;4.13;74.54;100649.09;5031727;28;20037;-41
2023/03/11 00:56:52;;;;;;;18.25;10.65;;;;;;;4.07;72.37;100659.22;5032166;28;20538;-40
2023/03/11 00:59:18;;;;;;;18.20;11.13;;;;;;;3.99;73.38;100651.50;5031387;28;20044;-40
2023/03/11 01:01:43;;;;;;;16.35;10.82;;;;;;;4.02;75.15;100650.97;5032864;28;20022;-40
2023/03/11 01:04:08;;;;;;;18.20;11.35;;;;;;;4.09;76.02;100654.28;5031391;28;20037;-40
2023/03/11 01:06:33;;;;;;;17.17;10.48;;;;;;;4.06;74.18;100652.13;5033272;28;20028;-40
2023/03/11 01:08:59;;;;;;;16.63;10.75;;;;;;;3.98;73.55;100661.66;5032949;28;20034;-40
2023/03/11 01:11:24;;;;;;;18.17;10.68;;;;;;;3.99;75.14;100656.97;5031399;28;20029;-40
2023/03/11 01:13:49;;;;;;;19.88;11.85;;;;;;;4.01;75.23;100674.81;5032703;28;20029;-40
2023/03/11 01:16:15;;;;;;;23.40;12.45;;;;;;;3.98;75.69;100683.53;5032509;28;20104;-41
2023/03/11 01:18:40;;;;;;;22.20;12.55;;;;;;;3.93;74.65;100682.69;5032639;28;20021;-41
2023/03/11 01:21:05;;;;;;;21.42;12.75;;;;;;;3.93;76.15;100685.44;5032701;28;20025;-40
2023/03/11 01:23:31;;;;;;;21.50;12.98;;;;;;;3.88;74.99;100687.03;5032806;28;20056;-40
2023/03/11 01:25:57;;;;;;;26.80;13.35;;;;;;;3.83;74.09;100692.50;5032645;28;20029;-40
2023/03/11 01:28:22;;;;;;;21.42;12.48;;;;;;;3.81;74.14;100691.13;5032872;28;20026;-40
2023/03/11 01:30:48;;;;;;;22.52;12.75;;;;;;;3.80;76.28;100686.72;5025655;28;20037;-41
2023/03/11 01:33:15;;;;;;;20.63;12.38;;;;;;;3.79;74.84;100688.63;5030643;28;20033;-40
2023/03/11 01:35:42;;;;;;;21.33;12.27;;;;;;;3.82;75.13;100698.25;5032247;28;20116;-40
2023/03/11 01:38:08;;;;;;;22.63;12.48;;;;;;;3.86;76.30;100689.22;5031824;28;20026;-40
2023/03/11 01:40:40;;;;;;;20.92;12.35;;;;;;;3.91;77.64;100685.69;5032184;28;20025;-39
2023/03/11 01:43:43;;;;;;;20.65;11.88;;;;;;;3.95;76.43;100694.22;5032048;28;20039;-43
2023/03/11 01:46:22;;;;;;;21.40;11.98;;;;;;;3.95;76.04;100696.94;5031840;28;20041;-40
2023/03/11 01:48:53;;;;;;;23.00;12.15;;;;;;;3.89;74.50;100693.34;5030649;28;20423;-40
2023/03/11 01:51:28;;;;;;;20.10;11.82;;;;;;;3.95;74.92;100702.41;5032039;28;20025;-40
2023/03/11 01:53:56;;;;;;;24.50;13.27;;;;;;;3.93;76.06;100697.19;5031987;28;20468;-39
2023/03/11 01:56:22;;;;;;;23.50;12.40;;;;;;;3.89;75.03;100699.63;5031870;28;20105;-39
2023/03/11 01:58:51;;;;;;;22.63;13.20;;;;;;;3.87;75.10;100695.53;5030833;28;20036;-39
2023/03/11 02:01:19;;;;;;;22.50;13.20;;;;;;;3.82;74.77;100698.25;5031843;28;20559;-39
2023/03/11 02:03:44;;;;;;;22.73;12.50;;;;;;;3.84;75.98;100693.31;5031426;28;20503;-40
2023/03/11 02:06:20;;;;;;;25.85;12.45;;;;;;;3.82;76.22;100690.03;5031825;28;20029;-39
2023/03/11 02:08:46;;;;;;;22.52;13.05;;;;;;;3.83;76.18;100695.22;5031898;28;20060;-40
2023/03/11 02:11:18;;;;;;;22.42;12.48;;;;;;;3.80;76.23;100687.53;5031617;28;20021;-40
2023/03/11 02:13:44;;;;;;;24.23;13.23;;;;;;;3.86;76.02;100697.44;5031375;28;20042;-40
2023/03/11 02:16:10;;;;;;;22.95;12.98;;;;;;;3.85;76.47;100698.53;5031586;28;20026;-40
2023/03/11 02:18:36;;;;;;;21.48;12.48;;;;;;;3.81;75.01;100693.84;5031066;28;20087;-40
2023/03/11 02:21:20;;;;;;;24.67;12.75;;;;;;;3.80;76.24;100695.75;5031620;28;20033;-39
2023/03/11 02:24:11;;;;;;;26.00;13.65;;;;;;;3.80;75.94;100705.88;5031232;28;20528;-40
2023/03/11 02:27:17;;;;;;;24.88;14.35;;;;;;;3.84;76.24;100702.34;5028480;28;20112;-40
2023/03/11 02:29:46;;;;;;;26.42;14.13;;;;;;;3.72;75.72;100708.03;4970193;28;20039;-39
2023/03/11 02:32:12;;;;;;;24.67;12.63;;;;;;;3.72;76.60;100704.44;4969896;28;20043;-40
2023/03/11 02:34:38;;;;;;;24.63;13.30;;;;;;;3.65;75.74;100698.41;5000815;28;20124;-40
2023/03/11 02:37:07;;;;;;;21.15;11.65;;;;;;;3.69;76.29;100704.97;5031430;28;20251;-40
2023/03/11 02:39:36;;;;;;;19.95;12.27;;;;;;;3.77;78.16;100704.50;5031623;28;20578;-40
2023/03/11 02:42:09;;;;;;;19.10;11.48;;;;;;;3.76;77.64;100705.59;5031183;28;20748;-40
2023/03/11 02:44:34;;;;;;;20.88;12.00;;;;;;;3.74;76.93;100705.03;5030660;28;20468;-40
2023/03/11 02:47:00;;;;;;;20.75;11.35;;;;;;;3.71;77.19;100698.19;5031400;28;20119;-40
2023/03/11 02:49:26;;;;;;;20.67;12.30;;;;;;;3.71;76.49;100694.59;5031218;28;20141;-40
2023/03/11 02:51:51;;;;;;;21.90;12.07;;;;;;;3.77;75.93;100709.13;5030931;28;20032;-40
2023/03/11 02:54:17;;;;;;;22.23;12.10;;;;;;;3.78;76.41;100703.38;5031119;28;20055;-40
2023/03/11 02:56:42;;;;;;;21.67;11.82;;;;;;;3.79;76.31;100706.97;5029726;28;20096;-41
2023/03/11 02:59:07;;;;;;;21.20;12.18;;;;;;;3.79;76.30;100709.69;5030895;28;20037;-41
2023/03/11 03:01:33;;;;;;;21.50;12.63;;;;;;;3.79;76.34;100702.31;5031012;28;20472;-41
2023/03/11 03:03:58;;;;;;;21.80;12.32;;;;;;;3.79;75.83;100706.97;5031414;28;20026;-41
2023/03/11 03:06:24;;;;;;;21.38;11.95;;;;;;;3.77;77.19;100696.31;5031289;28;20033;-41
2023/03/11 03:08:49;;;;;;;20.20;11.38;;;;;;;3.80;75.83;100697.69;5031468;28;20152;-41
2023/03/11 03:11:14;;;;;;;18.90;10.57;;;;;;;3.80;75.55;100703.16;5030497;28;20033;-41
2023/03/11 03:13:40;;;;;;;19.58;10.85;;;;;;;3.77;75.82;100707.25;5030208;28;20559;-42
2023/03/11 03:16:05;;;;;;;20.90;10.70;;;;;;;3.78;76.42;100713.53;5029953;28;20025;-41
2023/03/11 03:18:30;;;;;;;18.02;10.70;;;;;;;3.74;75.93;100714.03;5031843;28;20388;-42
2023/03/11 03:20:56;;;;;;;17.25;10.35;;;;;;;3.74;76.82;100716.78;5027681;28;20389;-41
2023/03/11 03:23:22;;;;;;;18.27;10.98;;;;;;;3.74;76.99;100729.66;5034529;28;20026;-41
2023/03/11 03:25:47;;;;;;;17.67;11.30;;;;;;;3.71;75.89;100732.91;5035280;28;20037;-41
2023/03/11 03:28:13;;;;;;;18.58;10.60;;;;;;;3.68;77.30;100734.25;5035052;28;20036;-41
2023/03/11 03:30:39;;;;;;;19.67;11.40;;;;;;;3.64;77.13;100744.06;5026556;28;20030;-42
2023/03/11 03:33:05;;;;;;;23.98;11.20;;;;;;;3.66;77.01;100743.81;5014610;28;20200;-41
2023/03/11 03:35:32;;;;;;;20.63;11.13;;;;;;;3.65;76.22;100759.41;5013736;28;20030;-41
2023/03/11 03:37:57;;;;;;;21.33;11.25;;;;;;;3.61;76.59;100761.03;5014968;28;20044;-41
2023/03/11 03:40:23;;;;;;;19.13;11.23;;;;;;;3.53;76.01;100754.13;5015219;28;20481;-41
2023/03/11 03:42:48;;;;;;;19.60;10.85;;;;;;;3.56;76.65;100752.75;5014991;28;20037;-41
2023/03/11 03:45:14;;;;;;;16.85;10.60;;;;;;;3.63;77.55;100761.59;5013341;28;20030;-42
2023/03/11 03:47:39;;;;;;;21.42;11.52;;;;;;;3.65;76.76;100770.34;5014011;28;20366;-41
2023/03/11 03:50:06;;;;;;;18.77;11.40;;;;;;;3.64;77.36;100771.41;5014829;28;20432;-41
2023/03/11 03:52:33;;;;;;;21.05;11.95;;;;;;;3.50;75.94;100757.34;5013017;28;20041;-41
2023/03/11 03:54:59;;;;;;;19.98;11.60;;;;;;;3.61;76.66;100773.84;5014988;28;20034;-41
2023/03/11 03:57:24;;;;;;;20.65;11.30;;;;;;;3.62;77.39;100775.50;5014648;28;20045;-41
2023/03/11 03:59:49;;;;;;;20.73;11.43;;;;;;;3.62;76.96;100779.09;5014068;28;20136;-41
2023/03/11 04:02:15;;;;;;;23.27;11.98;;;;;;;3.65;77.47;100780.47;5014558;28;20026;-40
2023/03/11 04:04:40;;;;;;;22.45;11.98;;;;;;;3.65;76.59;100780.47;5014554;28;20088;-41
2023/03/11 04:07:05;;;;;;;23.83;13.15;;;;;;;3.64;76.46;100779.63;5014215;28;20489;-41
2023/03/11 04:09:32;;;;;;;27.33;13.13;;;;;;;3.62;76.18;100779.09;5012789;28;20120;-41
2023/03/11 04:11:59;;;;;;;23.33;12.93;;;;;;;3.56;75.95;100780.94;5013795;28;20026;-41
2023/03/11 04:14:24;;;;;;;24.23;13.60;;;;;;;3.55;76.83;100776.56;5014090;28;20045;-41
2023/03/11 04:16:50;;;;;;;22.55;12.95;;;;;;;3.58;76.68;100792.47;5010988;28;20030;-41
2023/03/11 04:19:15;;;;;;;22.52;13.35;;;;;;;3.53;76.47;100780.66;5010309;28;20022;-41
2023/03/11 04:21:40;;;;;;;22.60;13.23;;;;;;;3.57;77.97;100790.81;5013760;28;20030;-41
2023/03/11 04:24:06;;;;;;;22.27;12.30;;;;;;;3.58;77.38;100792.47;5013786;28;20036;-41
2023/03/11 04:26:31;;;;;;;20.85;11.90;;;;;;;3.59;77.90;100802.28;5014043;28;20029;-41
2023/03/11 04:28:56;;;;;;;19.88;11.75;;;;;;;3.57;77.05;100795.44;5014061;28;20036;-41
2023/03/11 04:31:22;;;;;;;20.58;11.50;;;;;;;3.61;77.64;100795.75;5013095;28;20132;-41
2023/03/11 04:33:47;;;;;;;20.50;11.52;;;;;;;3.56;77.03;100794.63;5013600;28;20026;-41
2023/03/11 04:36:12;;;;;;;21.33;11.82;;;;;;;3.53;77.34;100795.16;5013741;28;20064;-41
2023/03/11 04:38:38;;;;;;;20.73;11.27;;;;;;;3.56;76.97;100805.56;5013966;28;20157;-40
2023/03/11 04:41:05;;;;;;;22.25;11.98;;;;;;;3.54;76.66;100809.66;5013716;28;20041;-41
2023/03/11 04:43:31;;;;;;;21.25;11.52;;;;;;;3.49;77.08;100801.41;5013979;28;20112;-40
2023/03/11 04:45:56;;;;;;;20.63;11.68;;;;;;;3.44;77.48;100785.75;5013658;28;20118;-40
2023/03/11 04:48:22;;;;;;;21.98;11.27;;;;;;;3.41;76.96;100787.13;5011681;28;20542;-41
2023/03/11 04:50:47;;;;;;;20.08;11.57;;;;;;;3.49;77.79;100804.13;5013320;28;20109;-41
2023/03/11 04:53:12;;;;;;;18.23;11.30;;;;;;;3.46;77.56;100790.97;5013643;28;20037;-41
2023/03/11 04:55:38;;;;;;;20.15;12.00;;;;;;;3.51;78.51;100802.78;5012132;28;20040;-42
2023/03/11 04:58:04;;;;;;;18.10;11.73;;;;;;;3.50;78.96;100798.38;5013060;28;20113;-41
2023/03/11 05:00:29;;;;;;;21.63;11.80;;;;;;;3.54;79.88;100791.31;5013319;28;20437;-41
2023/03/11 05:02:54;;;;;;;20.45;11.40;;;;;;;3.56;79.09;100796.53;5012847;28;20088;-41
2023/03/11 05:05:20;;;;;;;20.67;11.50;;;;;;;3.52;78.83;100798.97;5013078;28;20026;-40
2023/03/11 05:07:45;;;;;;;19.83;11.50;;;;;;;3.56;79.21;100800.09;5013181;28;20029;-41
2023/03/11 05:10:11;;;;;;;21.27;11.57;;;;;;;3.56;79.13;100808.31;5013064;28;20022;-41
2023/03/11 05:12:36;;;;;;;18.05;11.60;;;;;;;3.45;79.78;100775.66;5006144;28;20030;-42
2023/03/11 05:15:02;;;;;;;20.33;12.13;;;;;;;3.56;79.71;100802.84;5013351;28;20022;-41
2023/03/11 05:17:27;;;;;;;19.17;11.93;;;;;;;3.56;80.02;100799.25;5012629;28;20029;-41
2023/03/11 05:19:53;;;;;;;21.38;12.20;;;;;;;3.54;80.49;100806.94;5012820;28;20026;-41
2023/03/11 05:22:18;;;;;;;21.38;12.30;;;;;;;3.56;79.91;100807.47;5012922;28;20026;-40
2023/03/11 05:24:45;;;;;;;21.00;12.25;;;;;;;3.56;80.03;100815.66;5012996;28;20069;-41
2023/03/11 05:27:11;;;;;;;22.80;12.85;;;;;;;3.54;79.97;100815.94;5012794;28;20030;-40
2023/03/11 05:29:36;;;;;;;21.15;12.63;;;;;;;3.52;78.85;100825.50;5012941;28;20029;-41
2023/03/11 05:32:02;;;;;;;20.08;12.00;;;;;;;3.46;78.79;100821.88;5012733;28;20117;-40
2023/03/11 05:34:27;;;;;;;19.40;11.85;;;;;;;3.42;78.93;100821.59;5012425;28;20152;-40
2023/03/11 05:36:52;;;;;;;19.15;11.52;;;;;;;3.45;79.75;100822.16;5012762;28;20175;-40
2023/03/11 05:39:17;;;;;;;20.88;11.82;;;;;;;3.46;78.06;100826.50;5012730;28;20072;-41
2023/03/11 05:41:43;;;;;;;20.45;11.75;;;;;;;3.43;77.24;100825.13;5011899;28;20362;-42
2023/03/11 05:44:09;;;;;;;17.88;11.55;;;;;;;3.46;76.83;100832.00;5012346;28;20022;-40
2023/03/11 05:46:34;;;;;;;17.35;10.98;;;;;;;3.33;78.07;100814.94;5012416;28;20385;-41
2023/03/11 05:48:59;;;;;;;21.02;11.57;;;;;;;3.45;77.55;100842.13;5011854;28;20116;-41
2023/03/11 05:51:25;;;;;;;20.23;11.15;;;;;;;3.43;78.04;100831.44;5010433;28;20107;-40
2023/03/11 05:53:50;;;;;;;19.70;11.52;;;;;;;3.43;77.49;100849.75;5011603;28;20060;-41
2023/03/11 05:56:18;;;;;;;20.48;11.20;;;;;;;3.37;77.78;100840.66;5012018;28;20057;-40
2023/03/11 05:58:44;;;;;;;18.85;11.68;;;;;;;3.38;77.71;100845.06;5011780;28;20045;-41
2023/03/11 06:01:11;;;;;;;18.23;11.63;;;;;;;3.39;78.66;100849.44;5011513;28;20500;-42
2023/03/11 06:03:38;;;;;;;20.10;11.15;;;;;;;3.38;77.65;100853.25;5011698;28;20495;-41
2023/03/11 06:06:08;;;;;;;19.88;11.02;;;;;;;3.33;78.25;100846.91;5011521;28;20057;-41
2023/03/11 06:08:35;;;;;;;20.20;11.70;;;;;;;3.36;78.31;100858.16;5004511;28;20146;-41
2023/03/11 06:11:09;;;;;;;19.35;11.50;;;;;;;3.30;76.62;100858.38;5011310;28;20109;-41
2023/03/11 06:13:34;;;;;;;20.40;12.18;;;;;;;3.36;78.30;100862.81;5011647;28;20041;-41
2023/03/11 06:16:00;;;;;;;19.88;12.23;;;;;;;3.39;78.03;100870.50;5011263;28;20034;-40
2023/03/11 06:18:25;;;;;;;21.33;12.10;;;;;;;3.45;79.33;100871.38;5011167;28;20030;-40
2023/03/11 06:20:52;;;;;;;20.63;13.07;;;;;;;3.45;80.34;100869.47;5011226;28;20072;-41
2023/03/11 06:23:18;;;;;;;22.35;12.70;;;;;;;3.50;79.15;100871.44;5011655;28;20041;-40
2023/03/11 06:25:43;;;;;;;24.10;13.10;;;;;;;3.54;79.50;100867.09;5011699;28;20450;-40
2023/03/11 06:28:09;;;;;;;23.40;12.82;;;;;;;3.57;80.07;100875.63;5011562;28;20026;-40
2023/03/11 06:30:34;;;;;;;24.55;13.07;;;;;;;3.59;80.68;100878.09;5011410;28;20420;-41
2023/03/11 06:32:59;;;;;;;24.88;12.82;;;;;;;3.61;80.14;100886.88;5011048;28;20061;-41
2023/03/11 06:35:25;;;;;;;22.27;12.18;;;;;;;3.64;80.37;100894.53;5009434;28;20026;-41
2023/03/11 06:37:50;;;;;;;23.27;12.63;;;;;;;3.66;80.02;100889.63;5011859;28;20108;-41
2023/03/11 06:40:16;;;;;;;24.38;13.00;;;;;;;3.66;79.71;100886.91;5011635;28;20397;-40
2023/03/11 06:42:45;;;;;;;23.15;13.98;;;;;;;3.62;80.24;100876.72;5011713;28;20026;-41
2023/03/11 06:45:10;;;;;;;25.83;14.75;;;;;;;3.72;79.92;100902.31;5011188;28;20037;-41
2023/03/11 06:47:35;;;;;;;25.15;15.85;;;;;;;3.77;80.59;100900.69;5010982;28;20084;-41
2023/03/11 06:50:05;;;;;;;29.73;17.02;;;;;;;3.79;80.40;100902.06;5011188;28;20038;-40
2023/03/11 06:52:30;;;;;;;31.80;20.55;;;;;;;3.74;80.41;100907.50;5011414;28;20030;-42
2023/03/11 06:54:56;;;;;;;28.50;18.77;;;;;;;3.79;78.85;100914.94;5014722;28;20045;-41
2023/03/11 06:57:21;;;;;;;23.48;13.68;;;;;;;3.73;77.38;100919.53;5015785;28;20037;-40
2023/03/11 06:59:46;;;;;;;23.83;13.40;;;;;;;3.72;78.33;100928.81;5014653;28;20424;-40
2023/03/11 07:02:12;;;;;;;22.58;12.50;;;;;;;3.70;77.06;100926.34;5015612;28;20038;-40
2023/03/11 07:04:37;;;;;;;21.63;13.15;;;;;;;3.72;78.37;100940.63;5011518;28;20041;-40
2023/03/11 07:07:03;;;;;;;22.58;13.88;;;;;;;3.74;79.01;100943.09;5015747;28;20358;-40
2023/03/11 07:09:28;;;;;;;20.95;13.27;;;;;;;3.79;78.83;100942.31;5015641;28;20112;-41
2023/03/11 07:11:54;;;;;;;22.90;13.13;;;;;;;3.78;76.58;100957.88;5015711;28;20057;-41
2023/03/11 07:14:19;;;;;;;21.25;13.23;;;;;;;3.80;77.82;100963.94;5019675;28;20048;-41
2023/03/11 07:16:45;;;;;;;23.35;13.48;;;;;;;3.81;76.23;100960.13;5035506;28;20472;-40
2023/03/11 07:19:11;;;;;;;25.00;14.57;;;;;;;3.80;76.57;100952.16;5035207;28;20025;-40
2023/03/11 07:21:37;;;;;;;22.13;12.35;;;;;;;3.81;77.41;100948.34;5035565;28;20179;-40
2023/03/11 07:24:04;;;;;;;23.15;13.05;;;;;;;3.85;77.11;100954.94;5035220;28;20033;-40
2023/03/11 07:26:32;;;;;;;22.20;12.48;;;;;;;3.88;77.75;100960.72;5035257;28;20033;-41
2023/03/11 07:28:57;;;;;;;21.40;13.32;;;;;;;3.96;78.84;100950.41;5035278;28;20519;-40
2023/03/11 07:31:25;;;;;;;21.02;11.70;;;;;;;3.95;77.98;100955.06;5035280;28;20104;-41
2023/03/11 07:33:51;;;;;;;23.15;12.93;;;;;;;4.05;77.25;100960.63;5035112;28;20033;-40
2023/03/11 07:36:19;;;;;;;23.65;12.85;;;;;;;4.09;76.53;100969.16;5035172;28;20033;-40
2023/03/11 07:38:45;;;;;;;24.15;13.75;;;;;;;4.13;76.81;100967.56;5034999;28;20038;-40
2023/03/11 07:41:12;;;;;;;24.55;13.57;;;;;;;4.16;76.79;100964.28;5035049;28;20379;-39
2023/03/11 07:43:38;;;;;;;22.73;12.77;;;;;;;4.21;76.16;100968.97;5034915;28;20072;-40
2023/03/11 07:46:07;;;;;;;23.23;12.48;;;;;;;4.19;75.89;100962.94;5030761;28;20075;-40
2023/03/11 07:48:34;;;;;;;22.15;12.05;;;;;;;4.25;76.55;100972.03;5014979;28;20038;-40
2023/03/11 07:51:17;;;;;;;21.08;11.95;;;;;;;4.38;77.78;100977.06;5014795;28;20036;-39
2023/03/11 07:53:43;;;;;;;22.42;12.40;;;;;;;4.40;77.22;100972.16;5014978;28;20038;-40
2023/03/11 07:56:10;;;;;;;21.73;12.32;;;;;;;4.42;77.55;100977.38;5014889;28;20075;-40
2023/03/11 07:58:36;;;;;;;20.17;11.77;;;;;;;4.48;76.10;100984.56;5013628;28;20034;-40
2023/03/11 08:01:05;;;;;;;20.33;11.77;;;;;;;4.46;74.49;100987.53;5006697;28;20050;-40
2023/03/11 08:03:31;;;;;;;22.70;11.93;;;;;;;4.51;73.95;100997.72;5014589;28;20379;-40
2023/03/11 08:05:56;;;;;;;23.90;12.90;;;;;;;4.46;73.13;100995.75;5013450;28;20583;-40
2023/03/11 08:08:21;;;;;;;21.42;11.90;;;;;;;4.49;72.94;100997.97;5014793;28;20512;-40
2023/03/11 08:10:47;;;;;;;21.63;11.57;;;;;;;4.57;72.81;100998.59;5014562;28;20026;-40
2023/03/11 08:13:12;;;;;;;20.77;11.45;;;;;;;4.61;74.13;100992.31;5014459;28;20022;-40
2023/03/11 08:15:37;;;;;;;19.88;11.27;;;;;;;4.57;71.49;101002.16;5013012;28;20391;-39
2023/03/11 08:18:04;;;;;;;19.88;11.38;;;;;;;4.61;72.54;101005.22;5012911;28;20033;-40
2023/03/11 08:20:29;;;;;;;21.50;11.73;;;;;;;4.66;74.10;101005.22;5014685;28;20056;-40
2023/03/11 08:22:54;;;;;;;21.88;11.60;;;;;;;4.71;72.08;101015.41;5014508;28;20034;-39
2023/03/11 08:25:20;;;;;;;20.73;10.90;;;;;;;4.73;71.85;101013.22;5014203;28;20397;-39
2023/03/11 08:27:45;;;;;;;21.75;10.93;;;;;;;4.75;72.95;101013.81;5014156;28;20112;-39
2023/03/11 08:30:11;;;;;;;19.63;11.07;;;;;;;4.78;73.31;101002.28;5014000;28;20102;-39
2023/03/11 08:32:36;;;;;;;19.98;10.60;;;;;;;4.86;70.50;101004.56;5013986;28;20041;-40
2023/03/11 08:35:01;;;;;;;18.08;10.35;;;;;;;4.90;70.83;100996.66;5012313;28;20033;-40
2023/03/11 08:37:27;;;;;;;17.55;10.63;;;;;;;4.98;70.92;101004.38;5014062;28;20026;-40
2023/03/11 08:39:52;;;;;;;16.65;10.07;;;;;;;5.02;69.07;101007.41;5013898;28;20029;-40
2023/03/11 08:42:18;;;;;;;17.85;10.27;;;;;;;5.04;69.08;101007.97;5013814;28;20069;-40
2023/03/11 08:44:43;;;;;;;16.63;9.95;;;;;;;5.06;69.50;101023.06;5028260;28;20022;-40
2023/03/11 08:47:09;;;;;;;17.55;10.20;;;;;;;5.07;69.01;101021.97;5033155;28;20040;-40
2023/03/11 08:49:36;;;;;;;18.83;10.40;;;;;;;5.13;69.63;101026.38;5033495;28;20040;-40
2023/03/11 08:52:01;;;;;;;17.35;9.75;;;;;;;5.16;67.13;101025.03;5033641;28;20036;-39
2023/03/11 08:54:27;;;;;;;17.70;9.38;;;;;;;5.21;67.83;101026.97;5033319;28;20108;-40
2023/03/11 08:56:52;;;;;;;15.63;9.60;;;;;;;5.29;67.89;101035.53;5033334;28;20071;-40
2023/03/11 08:59:17;;;;;;;17.55;9.75;;;;;;;5.39;68.83;101029.25;5033359;28;20029;-39
2023/03/11 09:01:43;;;;;;;16.45;9.85;;;;;;;5.47;68.13;101030.69;5026114;28;20029;-39
2023/03/11 09:04:08;;;;;;;15.57;9.70;;;;;;;5.57;67.99;101038.97;5032421;28;20029;-40
2023/03/11 09:06:33;;;;;;;17.73;9.80;;;;;;;5.60;66.40;101040.34;5033351;28;20032;-39
2023/03/11 09:08:59;;;;;;;15.63;9.80;;;;;;;5.70;66.66;101047.81;5033138;28;20040;-40
2023/03/11 09:11:24;;;;;;;14.27;9.75;;;;;;;5.81;66.14;101040.44;5033279;28;20029;-40
2023/03/11 09:13:50;;;;;;;15.88;9.80;;;;;;;5.90;66.81;101042.38;5033168;28;20040;-40
2023/03/11 09:16:24;;;;;;;16.40;9.52;;;;;;;5.97;65.34;101046.81;5032797;28;20483;-39
2023/03/11 09:18:50;;;;;;;17.52;9.32;;;;;;;5.98;64.89;101042.97;5032955;28;20053;-39
2023/03/11 09:21:15;;;;;;;16.67;9.20;;;;;;;6.03;63.64;101048.47;5032809;28;20040;-39
2023/03/11 09:23:41;;;;;;;15.82;9.10;;;;;;;5.97;62.21;101052.28;5033050;28;20400;-40
2023/03/11 09:26:06;;;;;;;17.63;9.50;;;;;;;5.94;61.49;101050.91;5032971;28;20047;-40
2023/03/11 09:28:31;;;;;;;15.15;9.57;;;;;;;5.96;63.19;101054.19;5032344;28;20025;-40
2023/03/11 09:30:57;;;;;;;15.27;9.30;;;;;;;5.93;60.14;101058.31;5018427;28;20025;-39
2023/03/11 09:33:23;;;;;;;15.00;9.70;;;;;;;5.83;60.38;101051.97;5012972;28;20439;-40
2023/03/11 09:35:48;;;;;;;14.55;9.20;;;;;;;5.79;62.11;101057.19;5012893;28;20029;-39
2023/03/11 09:38:13;;;;;;;13.55;9.27;;;;;;;5.89;62.51;101053.63;5013000;28;20413;-40
2023/03/11 09:41:06;;;;;;;15.93;9.35;;;;;;;6.06;62.70;101058.94;5013004;28;20030;-40
2023/03/11 09:43:50;;;;;;;14.70;9.40;;;;;;;6.18;62.11;101055.94;5012945;28;20061;-40
2023/03/11 09:46:22;;;;;;;14.45;9.30;;;;;;;6.27;60.29;101068.06;5011746;28;20385;-40
2023/03/11 09:49:03;;;;;;;13.75;9.00;;;;;;;6.34;62.14;101067.78;5012781;28;20121;-40
2023/03/11 09:51:34;;;;;;;13.70;9.27;;;;;;;6.35;60.52;101056.53;5012769;28;20029;-40
2023/03/11 09:54:08;;;;;;;12.70;9.13;;;;;;;6.49;61.26;101070.56;5012716;28;20049;-41
2023/03/11 09:56:36;;;;;;;13.70;9.02;;;;;;;6.50;60.44;101061.22;5012714;28;20034;-40
2023/03/11 09:59:08;;;;;;;15.32;9.30;;;;;;;6.65;62.68;101059.59;5012685;28;20063;-40
2023/03/11 10:01:41;;;;;;;17.75;8.95;;;;;;;6.82;61.65;101056.53;5005781;28;20030;-40
2023/03/11 10:04:25;;;;;;;14.88;9.25;;;;;;;6.93;63.85;101054.63;5012423;28;20042;-39
2023/03/11 10:06:51;;;;;;;15.05;9.55;;;;;;;6.95;61.56;101061.50;5012451;28;20092;-41
2023/03/11 10:09:39;;;;;;;14.60;9.48;;;;;;;6.97;60.13;101069.47;5012205;28;20032;-39
2023/03/11 10:12:24;;;;;;;14.77;9.45;;;;;;;6.93;59.69;101055.44;5012012;28;20038;-39
2023/03/11 10:15:21;;;;;;;19.35;10.40;;;;;;;7.02;60.46;101069.47;5011967;28;20072;-39
2023/03/11 10:18:10;;;;;;;14.85;9.77;;;;;;;7.02;60.10;101066.72;5012086;28;20053;-39
2023/03/11 10:20:35;;;;;;;15.95;9.45;;;;;;;7.02;60.39;101074.97;5012002;28;20030;-39
2023/03/11 10:23:07;;;;;;;13.35;9.10;;;;;;;7.03;57.59;101082.13;5011817;28;20022;-39
2023/03/11 10:25:41;;;;;;;16.65;9.23;;;;;;;7.08;60.14;101073.06;5011870;28;20559;-39
2023/03/11 10:28:16;;;;;;;15.60;9.45;;;;;;;7.12;61.18;101058.47;5011313;28;20062;-39
2023/03/11 10:30:51;;;;;;;13.68;9.50;;;;;;;7.32;60.15;101078.78;5011649;28;20116;-40
2023/03/11 10:33:34;;;;;;;14.23;9.60;;;;;;;7.41;57.48;101077.13;5011723;28;20037;-39
2023/03/11 10:36:05;;;;;;;25.25;10.10;;;;;;;7.45;59.70;101078.19;5005232;28;20048;-39
2023/03/11 10:38:41;;;;;;;17.50;9.70;;;;;;;7.47;58.44;101081.50;5011635;28;20064;-41
2023/03/11 10:41:16;;;;;;;15.05;9.63;;;;;;;7.55;59.25;101082.88;5011772;28;20485;-40
2023/03/11 10:43:53;;;;;;;15.82;9.60;;;;;;;7.65;60.98;101076.47;5011887;28;20068;-40
2023/03/11 10:46:23;;;;;;;15.27;9.15;;;;;;;7.72;58.79;101073.44;5011739;28;20042;-40
2023/03/11 10:48:49;;;;;;;13.52;9.00;;;;;;;7.84;59.31;101076.66;5011808;28;20034;-41
2023/03/11 10:51:22;;;;;;;16.70;9.50;;;;;;;7.82;57.01;101084.41;5011529;28;20161;-40
2023/03/11 10:53:51;;;;;;;;;;;;;;;7.92;59.40;101084.38;5012054;28;20026;-40
2023/03/11 10:56:42;;;;;;;13.43;9.00;;;;;;;7.89;57.96;101079.41;5008478;28;19909;-41
2023/03/11 10:59:24;;;;;;;15.88;9.32;;;;;;;7.80;56.59;101073.66;5006713;28;20046;-40
2023/03/11 11:02:20;;;;;;;11.65;8.80;;;;;;;7.86;54.67;101081.91;5011840;28;20079;-41
2023/03/11 11:04:45;;;;;;;13.48;8.82;;;;;;;7.85;55.16;101080.28;5026718;28;20034;-40
2023/03/11 11:07:27;;;;;;;14.90;9.23;;;;;;;7.82;54.73;101065.13;5011645;28;20033;-40
2023/03/11 11:10:13;;;;;;;15.43;8.73;;;;;;;7.87;54.36;101076.13;5011765;28;20547;-40
2023/03/11 11:13:08;;;;;;;10.82;8.80;;;;;;;7.84;54.63;101075.88;5017254;28;20045;-41
2023/03/11 11:15:40;;;;;;;13.13;8.68;;;;;;;7.84;52.22;101070.34;5031726;28;20033;-40
2023/03/11 11:18:16;;;;;;;12.07;8.88;;;;;;;7.86;51.31;101079.16;5031139;28;20021;-40
2023/03/11 11:21:01;;;;;;;14.50;9.27;;;;;;;7.92;51.87;101075.28;5031155;28;20038;-41
2023/03/11 11:23:48;;;;;;;13.88;9.30;;;;;;;7.94;53.06;101086.84;5031309;28;20571;-41